createdAt,value
2023-06-12T00:02:40.989Z,4.53
2023-06-12T00:06:45.629Z,5.00
2023-06-12T00:10:49.423Z,4.85
2023-06-12T00:14:52.288Z,4.75
2023-06-12T00:18:56.653Z,5.40
2023-06-12T00:22:59.962Z,4.80
2023-06-12T00:27:03.641Z,5.03
2023-06-12T00:31:06.548Z,4.47
2023-06-12T00:35:11.061Z,4.70
2023-06-12T00:39:14.000Z,4.45
2023-06-12T00:43:17.096Z,4.60
2023-06-12T00:47:19.989Z,5.30
2023-06-12T00:51:28.854Z,5.55
2023-06-12T00:55:33.791Z,4.65
2023-06-12T00:59:37.015Z,5.13
2023-06-12T01:03:40.157Z,5.53
2023-06-12T01:07:50.926Z,5.78
2023-06-12T01:11:54.958Z,5.28
2023-06-12T01:15:58.196Z,5.82
2023-06-12T01:20:09.206Z,5.78
2023-06-12T01:24:36.826Z,5.50
2023-06-12T01:29:06.972Z,6.03
2023-06-12T01:33:15.107Z,5.30
2023-06-12T01:37:26.334Z,5.90
2023-06-12T01:41:34.362Z,5.70
2023-06-12T01:45:39.080Z,5.45
2023-06-12T01:49:43.420Z,5.32
2023-06-12T01:53:47.604Z,5.70
2023-06-12T01:57:54.618Z,5.45
2023-06-12T02:02:09.624Z,5.88
2023-06-12T02:06:14.150Z,6.68
2023-06-12T02:10:17.348Z,6.85
2023-06-12T02:14:21.596Z,7.15
2023-06-12T02:18:24.541Z,7.10
2023-06-12T02:22:28.805Z,6.88
2023-06-12T02:26:32.877Z,7.20
2023-06-12T02:30:35.919Z,6.63
2023-06-12T02:34:39.344Z,7.25
2023-06-12T02:38:44.614Z,6.43
2023-06-12T02:42:47.570Z,6.93
2023-06-12T02:46:52.918Z,7.30
2023-06-12T02:50:56.498Z,7.32
2023-06-12T02:55:00.865Z,7.32
2023-06-12T02:59:04.893Z,7.47
2023-06-12T03:03:09.812Z,7.43
2023-06-12T03:07:13.468Z,6.93
2023-06-12T03:11:20.000Z,7.03
2023-06-12T03:15:25.360Z,6.80
2023-06-12T03:19:28.275Z,7.45
2023-06-12T03:23:32.124Z,7.40
2023-06-12T03:27:36.426Z,6.47
2023-06-12T03:31:39.783Z,8.07
2023-06-12T03:35:43.031Z,7.63
2023-06-12T03:39:46.713Z,8.77
2023-06-12T03:43:51.642Z,9.80
2023-06-12T03:47:54.629Z,9.23
2023-06-12T03:51:57.787Z,9.38
2023-06-12T03:56:00.886Z,9.63
2023-06-12T04:00:11.086Z,9.55
2023-06-12T04:04:20.496Z,9.63
2023-06-12T04:08:24.169Z,8.90
2023-06-12T04:12:27.565Z,8.38
2023-06-12T04:16:31.864Z,7.10
2023-06-12T04:20:34.911Z,8.73
2023-06-12T04:24:37.840Z,7.90
2023-06-12T04:28:42.724Z,8.15
2023-06-12T04:32:48.317Z,7.68
2023-06-12T04:36:53.827Z,8.52
2023-06-12T04:40:56.755Z,7.97
2023-06-12T04:45:00.576Z,8.30
2023-06-12T04:49:05.076Z,8.07
2023-06-12T04:53:08.381Z,8.50
2023-06-12T04:57:13.551Z,8.45
2023-06-12T05:01:20.891Z,8.65
2023-06-12T05:05:25.824Z,8.60
2023-06-12T05:09:28.800Z,7.80
2023-06-12T05:13:32.013Z,7.70
2023-06-12T05:17:35.314Z,7.30
2023-06-12T05:21:42.539Z,7.38
2023-06-12T05:25:45.971Z,7.38
2023-06-12T05:29:48.953Z,7.28
2023-06-12T05:33:51.920Z,8.00
2023-06-12T05:37:56.297Z,6.68
2023-06-12T05:41:59.403Z,6.55
2023-06-12T05:46:02.749Z,6.43
2023-06-12T05:50:06.700Z,5.60
2023-06-12T05:54:11.616Z,5.13
2023-06-12T05:58:14.446Z,5.07
2023-06-12T06:02:18.345Z,5.00
2023-06-12T06:06:22.274Z,4.95
2023-06-12T06:10:28.621Z,4.97
2023-06-12T06:14:31.597Z,5.85
2023-06-12T06:18:34.523Z,5.05
2023-06-12T06:22:39.514Z,5.80
2023-06-12T06:26:44.262Z,5.75
2023-06-12T06:30:47.296Z,5.97
2023-06-12T06:34:50.167Z,5.35
2023-06-12T06:38:53.114Z,5.85
2023-06-12T06:42:57.671Z,5.30
2023-06-12T06:47:07.486Z,5.72
2023-06-12T06:51:10.527Z,5.75
2023-06-12T06:55:13.680Z,5.40
2023-06-12T06:59:18.405Z,5.45
2023-06-12T07:03:21.362Z,5.15
2023-06-12T07:07:24.298Z,5.10
2023-06-12T07:11:27.268Z,5.03
2023-06-12T07:15:31.767Z,5.78
2023-06-12T07:19:34.909Z,4.85
2023-06-12T07:23:37.993Z,5.05
2023-06-12T07:27:40.951Z,5.25
2023-06-12T07:31:45.825Z,5.38
2023-06-12T07:35:49.215Z,5.47
2023-06-12T07:39:52.370Z,5.40
2023-06-12T07:43:55.498Z,4.78
2023-06-12T07:48:00.045Z,4.97
2023-06-12T07:52:08.457Z,5.43
2023-06-12T07:56:13.092Z,4.75
2023-06-12T08:00:17.929Z,5.25
2023-06-12T08:04:24.962Z,4.32
2023-06-12T08:08:28.390Z,4.40
2023-06-12T08:12:31.492Z,4.82
2023-06-12T08:16:34.651Z,4.95
2023-06-12T08:20:39.137Z,4.85
2023-06-12T08:24:45.162Z,4.90
2023-06-12T08:28:51.030Z,4.30
2023-06-12T08:32:56.939Z,4.68
2023-06-12T08:37:01.257Z,4.50
2023-06-12T08:41:05.465Z,4.78
2023-06-12T08:45:21.424Z,4.65
2023-06-12T08:49:26.767Z,4.22
2023-06-12T08:53:31.268Z,4.20
2023-06-12T08:57:34.197Z,4.68
2023-06-12T09:01:39.991Z,4.80
2023-06-12T09:05:44.105Z,5.22
2023-06-12T09:09:48.952Z,4.32
2023-06-12T09:13:52.580Z,4.68
2023-06-12T09:17:56.940Z,4.22
2023-06-12T09:21:59.943Z,3.95
2023-06-12T09:26:15.658Z,4.30
2023-06-12T09:34:22.019Z,4.20
2023-06-12T09:38:30.450Z,4.07
2023-06-12T09:42:38.351Z,4.30
2023-06-12T09:46:42.991Z,3.95
2023-06-12T09:50:46.179Z,4.18
2023-06-12T09:54:49.707Z,4.22
2023-06-12T09:58:56.079Z,3.78
2023-06-12T10:03:02.105Z,4.15
2023-06-12T10:07:10.077Z,4.30
2023-06-12T10:11:13.596Z,3.67
2023-06-12T10:15:18.652Z,3.67
2023-06-12T10:19:22.212Z,4.33
2023-06-12T10:23:25.536Z,3.72
2023-06-12T10:27:28.908Z,4.53
2023-06-12T10:31:34.043Z,3.30
2023-06-12T10:35:36.965Z,3.67
2023-06-12T10:39:39.901Z,3.40
2023-06-12T10:43:55.642Z,3.80
2023-06-12T10:48:19.109Z,3.53
2023-06-12T10:52:22.907Z,3.42
2023-06-12T10:56:25.733Z,3.13
2023-06-12T11:00:32.561Z,3.75
2023-06-12T11:04:40.074Z,3.88
2023-06-12T11:08:43.554Z,3.55
2023-06-12T11:12:53.155Z,3.70
2023-06-12T11:16:59.725Z,3.65
2023-06-12T11:21:04.812Z,3.50
2023-06-12T11:25:08.654Z,3.40
2023-06-12T11:29:18.183Z,3.50
2023-06-12T11:33:24.047Z,3.72
2023-06-12T11:37:28.453Z,3.50
2023-06-12T11:41:31.378Z,3.45
2023-06-12T11:45:34.640Z,2.97
2023-06-12T11:49:38.542Z,3.30
2023-06-12T11:53:43.311Z,2.88
2023-06-12T11:57:48.127Z,3.35
2023-06-12T12:01:52.749Z,3.20
2023-06-12T12:05:55.644Z,3.95
2023-06-12T12:10:12.037Z,4.00
2023-06-12T12:14:15.201Z,4.20
2023-06-12T12:18:18.946Z,3.50
2023-06-12T12:22:24.572Z,4.28
2023-06-12T12:26:29.605Z,4.25
2023-06-12T12:30:33.152Z,3.88
2023-06-12T12:34:36.056Z,4.10
2023-06-12T12:38:39.001Z,3.47
2023-06-12T12:42:44.824Z,3.33
2023-06-12T12:46:47.901Z,3.30
2023-06-12T12:51:07.205Z,3.40
2023-06-12T12:55:13.148Z,3.20
2023-06-12T12:59:17.516Z,3.38
2023-06-12T13:03:20.618Z,3.33
2023-06-12T13:07:23.704Z,3.20
2023-06-12T13:11:27.198Z,3.20
2023-06-12T13:19:34.868Z,3.17
2023-06-12T13:23:37.783Z,3.10
2023-06-12T13:27:40.705Z,3.30
2023-06-12T13:31:45.016Z,3.03
2023-06-12T13:35:48.306Z,2.80
2023-06-12T13:39:51.737Z,3.20
2023-06-12T13:43:54.629Z,2.95
2023-06-12T13:47:59.682Z,3.10
2023-06-12T13:52:02.588Z,3.10
2023-06-12T13:56:06.517Z,3.15
2023-06-12T14:00:10.542Z,3.40
2023-06-12T14:04:15.030Z,2.92
2023-06-12T14:08:18.220Z,3.67
2023-06-12T14:12:21.038Z,3.10
2023-06-12T14:16:24.412Z,3.20
2023-06-12T14:20:28.629Z,3.00
2023-06-12T14:24:37.615Z,2.58
2023-06-12T14:28:41.336Z,2.70
2023-06-12T14:32:44.202Z,3.25
2023-06-12T14:36:48.383Z,2.95
2023-06-12T14:40:51.245Z,3.00
2023-06-12T14:44:54.120Z,2.97
2023-06-12T14:48:56.998Z,2.55
2023-06-12T14:53:01.275Z,3.17
2023-06-12T14:57:04.385Z,2.22
2023-06-12T15:01:09.268Z,2.60
2023-06-12T15:05:13.806Z,2.40
2023-06-12T15:09:18.425Z,2.67
2023-06-12T15:13:21.304Z,2.53
2023-06-12T15:17:24.260Z,2.63
2023-06-12T15:21:27.206Z,3.13
2023-06-12T15:25:31.635Z,2.95
2023-06-12T15:29:34.593Z,2.75
2023-06-12T15:33:37.509Z,2.70
2023-06-12T15:37:40.897Z,3.83
2023-06-12T15:41:45.264Z,2.58
2023-06-12T15:45:48.217Z,3.15
2023-06-12T15:49:51.101Z,3.40
2023-06-12T15:53:54.317Z,2.75
2023-06-12T15:57:58.828Z,2.80
2023-06-12T16:02:01.925Z,2.95
2023-06-12T16:06:05.036Z,3.00
2023-06-12T16:10:08.530Z,2.75
2023-06-12T16:14:12.739Z,3.78
2023-06-12T16:18:16.424Z,3.10
2023-06-12T16:22:21.173Z,2.90
2023-06-12T16:26:24.058Z,2.70
2023-06-12T16:30:28.260Z,2.92
2023-06-12T16:34:31.148Z,3.05
2023-06-12T16:38:33.998Z,2.70
2023-06-12T16:42:36.929Z,3.13
2023-06-12T16:46:41.214Z,2.80
2023-06-12T16:50:44.166Z,2.70
2023-06-12T16:54:47.052Z,3.28
2023-06-12T16:58:49.925Z,2.88
2023-06-12T17:02:54.168Z,3.00
2023-06-12T17:06:57.109Z,2.72
2023-06-12T17:11:03.355Z,3.05
2023-06-12T17:19:10.674Z,3.20
2023-06-12T17:23:14.058Z,3.10
2023-06-12T17:27:16.977Z,3.42
2023-06-12T17:31:20.039Z,3.30
2023-06-12T17:35:25.097Z,3.22
2023-06-12T17:39:28.577Z,3.00
2023-06-12T17:43:31.454Z,3.13
2023-06-12T17:47:34.748Z,4.10
2023-06-12T17:51:39.124Z,3.20
2023-06-12T17:55:42.062Z,3.15
2023-06-12T17:59:44.901Z,3.60
2023-06-12T18:03:47.800Z,4.03
2023-06-12T18:07:52.048Z,3.80
2023-06-12T18:11:56.461Z,3.75
2023-06-12T18:16:00.216Z,3.47
2023-06-12T18:20:03.367Z,3.53
2023-06-12T18:24:08.917Z,3.53
2023-06-12T18:28:11.944Z,3.70
2023-06-12T18:32:14.915Z,3.38
2023-06-12T18:36:18.805Z,3.40
2023-06-12T18:40:23.349Z,3.15
2023-06-12T18:44:26.245Z,3.63
2023-06-12T18:48:29.139Z,3.47
2023-06-12T18:52:33.193Z,3.65
2023-06-12T18:56:39.666Z,3.95
2023-06-12T19:00:42.732Z,3.58
2023-06-12T19:04:45.684Z,3.63
2023-06-12T19:08:49.072Z,3.67
2023-06-12T19:12:53.318Z,3.78
2023-06-12T19:16:56.225Z,3.90
2023-06-12T19:20:59.222Z,3.38
2023-06-12T19:25:02.138Z,3.45
2023-06-12T19:29:06.366Z,3.85
2023-06-12T19:33:09.386Z,4.32
2023-06-12T19:37:12.301Z,3.72
2023-06-12T19:41:15.916Z,4.78
2023-06-12T19:45:21.711Z,3.33
2023-06-12T19:49:24.612Z,3.78
2023-06-12T19:53:27.459Z,3.75
2023-06-12T19:57:30.297Z,3.53
2023-06-12T20:01:34.599Z,3.67
2023-06-12T20:05:37.677Z,3.80
2023-06-12T20:09:40.526Z,3.38
2023-06-12T20:13:43.430Z,3.83
2023-06-12T20:17:47.745Z,3.35
2023-06-12T20:21:51.540Z,3.40
2023-06-12T20:25:54.574Z,4.13
2023-06-12T20:29:57.577Z,4.18
2023-06-12T20:34:01.811Z,3.30
2023-06-12T20:38:04.810Z,3.67
2023-06-12T20:42:08.428Z,3.47
2023-06-12T20:46:11.697Z,3.70
2023-06-12T20:50:15.932Z,4.03
2023-06-12T20:54:18.800Z,4.55
2023-06-12T20:58:21.687Z,3.47
2023-06-12T21:02:24.633Z,3.20
2023-06-12T21:06:28.868Z,3.65
2023-06-12T21:10:31.778Z,3.83
2023-06-12T21:14:34.696Z,3.65
2023-06-12T21:18:37.559Z,3.55
2023-06-12T21:22:43.316Z,3.92
2023-06-12T21:26:46.239Z,3.17
2023-06-12T21:30:49.285Z,3.55
2023-06-12T21:34:52.169Z,3.40
2023-06-12T21:38:56.763Z,3.50
2023-06-12T21:42:59.633Z,3.08
2023-06-12T21:47:02.592Z,3.55
2023-06-12T21:51:05.810Z,3.40
2023-06-12T21:55:10.799Z,3.40
2023-06-12T21:59:13.994Z,3.42
2023-06-12T22:03:16.941Z,3.47
2023-06-12T22:07:19.845Z,3.22
2023-06-12T22:11:24.177Z,3.40
2023-06-12T22:15:27.092Z,3.70
2023-06-12T22:19:30.080Z,3.50
2023-06-12T22:23:33.364Z,3.30
2023-06-12T22:27:37.621Z,3.47
2023-06-12T22:31:43.097Z,3.65
2023-06-12T22:35:46.531Z,3.53
2023-06-12T22:39:49.470Z,2.92
2023-06-12T22:43:53.702Z,3.60
2023-06-12T22:47:58.151Z,3.40
2023-06-12T22:52:06.518Z,3.20
2023-06-12T22:56:09.366Z,3.42
2023-06-12T23:00:15.472Z,3.10
2023-06-12T23:04:18.417Z,3.72
2023-06-12T23:08:21.218Z,3.40
2023-06-12T23:12:24.232Z,3.30
2023-06-12T23:16:29.387Z,3.33
2023-06-12T23:20:32.768Z,3.25
2023-06-12T23:24:35.929Z,3.60
2023-06-12T23:28:38.819Z,3.50
2023-06-12T23:32:43.515Z,3.10
2023-06-12T23:36:46.876Z,2.88
2023-06-12T23:40:49.800Z,3.17
2023-06-12T23:44:53.371Z,3.45
2023-06-12T23:48:57.644Z,3.22
2023-06-12T23:53:00.491Z,3.03
2023-06-12T23:57:03.359Z,3.33
